createdAt,value
2022-08-17T00:00:34.648Z,59.40
2022-08-17T00:03:25.734Z,59.40
2022-08-17T00:05:59.805Z,60.00
2022-08-17T00:08:39.738Z,60.20
2022-08-17T00:11:11.820Z,60.30
2022-08-17T00:13:48.104Z,60.40
2022-08-17T00:16:56.185Z,60.70
2022-08-17T00:19:24.813Z,60.60
2022-08-17T00:22:32.890Z,60.80
2022-08-17T00:24:43.741Z,60.80
2022-08-17T00:27:10.808Z,60.80
2022-08-17T00:29:38.389Z,61.00
2022-08-17T00:33:16.011Z,60.80
2022-08-17T00:34:53.076Z,60.90
2022-08-17T00:37:20.501Z,61.00
2022-08-17T00:39:47.746Z,60.80
2022-08-17T00:42:19.316Z,61.00
2022-08-17T00:44:46.987Z,61.30
2022-08-17T00:47:14.120Z,61.50
2022-08-17T00:49:41.205Z,61.40
2022-08-17T00:52:17.238Z,61.40
2022-08-17T00:54:50.185Z,61.70
2022-08-17T00:57:40.689Z,61.70
2022-08-17T01:00:33.316Z,61.50
2022-08-17T01:03:22.043Z,61.90
2022-08-17T01:05:54.241Z,62.10
2022-08-17T01:08:26.576Z,62.40
2022-08-17T01:11:01.815Z,62.10
2022-08-17T01:13:41.601Z,62.10
2022-08-17T01:16:31.158Z,62.30
2022-08-17T01:19:03.314Z,61.80
2022-08-17T01:22:14.432Z,62.50
2022-08-17T01:24:47.345Z,62.10
2022-08-17T01:27:18.499Z,62.30
2022-08-17T01:29:53.092Z,62.40
2022-08-17T01:32:20.952Z,62.70
2022-08-17T01:34:50.205Z,62.50
2022-08-17T01:37:21.552Z,62.50
2022-08-17T01:40:00.715Z,62.80
2022-08-17T01:42:38.046Z,63.50
2022-08-17T01:45:18.972Z,63.60
2022-08-17T01:47:46.230Z,63.50
2022-08-17T01:50:31.935Z,62.90
2022-08-17T01:53:07.913Z,63.40
2022-08-17T01:55:44.517Z,63.40
2022-08-17T01:58:11.926Z,63.40
2022-08-17T02:00:59.411Z,63.30
2022-08-17T02:03:29.629Z,63.30
2022-08-17T02:05:57.556Z,63.20
2022-08-17T02:08:39.164Z,63.20
2022-08-17T02:11:17.830Z,63.20
2022-08-17T02:13:49.525Z,63.20
2022-08-17T02:16:26.953Z,63.40
2022-08-17T02:19:10.854Z,63.40
2022-08-17T02:21:40.452Z,63.90
2022-08-17T02:24:12.417Z,63.80
2022-08-17T02:26:39.621Z,64.00
2022-08-17T02:29:07.347Z,63.80
2022-08-17T02:31:35.667Z,63.90
2022-08-17T02:34:04.778Z,63.70
2022-08-17T02:36:36.555Z,63.80
2022-08-17T02:39:08.666Z,64.40
2022-08-17T02:41:36.970Z,64.20
2022-08-17T02:44:06.288Z,64.10
2022-08-17T02:46:34.113Z,64.00
2022-08-17T02:49:01.405Z,64.10
2022-08-17T02:51:29.448Z,64.00
2022-08-17T02:54:02.187Z,64.30
2022-08-17T02:56:44.381Z,64.40
2022-08-17T02:59:11.507Z,64.30
2022-08-17T03:01:38.752Z,64.30
2022-08-17T03:04:07.021Z,64.30
2022-08-17T03:06:34.057Z,64.50
2022-08-17T03:09:01.325Z,64.60
2022-08-17T03:11:28.784Z,64.60
2022-08-17T03:13:55.916Z,64.70
2022-08-17T03:16:23.548Z,64.80
2022-08-17T03:18:50.869Z,64.80
2022-08-17T03:21:18.002Z,64.80
2022-08-17T03:23:45.309Z,64.80
2022-08-17T03:26:15.614Z,64.90
2022-08-17T03:28:43.636Z,65.00
2022-08-17T03:31:10.805Z,64.80
2022-08-17T03:33:38.204Z,65.00
2022-08-17T03:36:06.900Z,65.10
2022-08-17T03:38:39.433Z,65.10
2022-08-17T03:41:07.368Z,65.20
2022-08-17T03:43:34.798Z,65.20
2022-08-17T03:46:34.138Z,65.20
2022-08-17T03:49:24.098Z,65.20
2022-08-17T03:52:11.940Z,65.30
2022-08-17T03:54:57.842Z,65.20
2022-08-17T03:57:26.182Z,65.20
2022-08-17T03:59:54.455Z,65.20
2022-08-17T04:02:30.544Z,65.20
2022-08-17T04:04:58.734Z,65.50
2022-08-17T04:07:30.319Z,65.30
2022-08-17T04:09:58.065Z,65.50
2022-08-17T04:12:31.015Z,65.30
2022-08-17T04:14:59.243Z,65.60
2022-08-17T04:17:29.152Z,65.70
2022-08-17T04:19:57.342Z,65.90
2022-08-17T04:22:31.882Z,65.70
2022-08-17T04:25:19.326Z,65.80
2022-08-17T04:27:46.393Z,66.00
2022-08-17T04:30:13.973Z,65.80
2022-08-17T04:33:10.963Z,65.70
2022-08-17T04:35:49.977Z,66.50
2022-08-17T04:38:21.837Z,66.40
2022-08-17T04:41:08.010Z,66.50
2022-08-17T04:43:36.666Z,66.50
2022-08-17T04:46:19.941Z,66.40
2022-08-17T04:48:52.882Z,66.90
2022-08-17T04:51:32.397Z,66.80
2022-08-17T04:54:07.744Z,66.90
2022-08-17T04:56:36.804Z,67.10
2022-08-17T04:59:18.007Z,66.90
2022-08-17T05:01:48.179Z,68.20
2022-08-17T05:04:33.990Z,67.10
2022-08-17T05:07:04.162Z,67.10
2022-08-17T05:09:31.641Z,67.00
2022-08-17T05:12:02.510Z,67.00
2022-08-17T05:14:33.062Z,67.30
2022-08-17T05:17:01.563Z,67.10
2022-08-17T05:19:32.100Z,67.10
2022-08-17T05:21:59.126Z,67.00
2022-08-17T05:24:38.335Z,67.20
2022-08-17T05:27:09.915Z,67.30
2022-08-17T05:29:42.302Z,67.40
2022-08-17T05:32:38.550Z,67.60
2022-08-17T05:35:02.000Z,68.00
2022-08-17T05:37:29.046Z,67.60
2022-08-17T05:39:56.626Z,67.60
2022-08-17T05:42:24.173Z,67.80
2022-08-17T05:44:51.214Z,67.80
2022-08-17T05:47:18.902Z,67.90
2022-08-17T05:49:49.074Z,68.00
2022-08-17T05:52:40.300Z,68.10
2022-08-17T05:55:16.095Z,68.40
2022-08-17T05:58:00.217Z,67.90
2022-08-17T06:00:42.175Z,68.10
2022-08-17T06:03:46.823Z,68.10
2022-08-17T06:06:35.398Z,68.20
2022-08-17T06:09:40.988Z,68.00
2022-08-17T06:12:42.031Z,68.10
2022-08-17T06:15:50.116Z,67.70
2022-08-17T06:18:19.298Z,67.50
2022-08-17T06:20:54.698Z,67.20
2022-08-17T06:23:40.400Z,67.80
2022-08-17T06:26:20.678Z,66.60
2022-08-17T06:29:18.647Z,66.90
2022-08-17T06:31:46.781Z,66.00
2022-08-17T06:34:14.083Z,66.10
2022-08-17T06:37:34.210Z,66.30
2022-08-17T06:40:45.471Z,65.70
2022-08-17T06:43:40.165Z,65.20
2022-08-17T06:46:15.401Z,64.70
2022-08-17T06:49:09.053Z,64.70
2022-08-17T06:51:42.066Z,64.40
2022-08-17T06:54:39.288Z,64.20
2022-08-17T06:57:18.154Z,64.20
2022-08-17T07:00:08.250Z,64.40
2022-08-17T07:03:03.019Z,64.00
2022-08-17T07:05:49.663Z,64.00
2022-08-17T07:08:35.010Z,63.90
2022-08-17T07:11:13.465Z,63.60
2022-08-17T07:14:04.734Z,63.30
2022-08-17T07:17:01.963Z,63.20
2022-08-17T07:19:33.853Z,63.10
2022-08-17T07:22:57.470Z,62.80
2022-08-17T07:25:27.497Z,62.60
2022-08-17T07:28:00.289Z,62.60
2022-08-17T07:30:31.269Z,62.20
2022-08-17T07:33:20.276Z,62.30
2022-08-17T07:35:49.991Z,62.10
2022-08-17T07:38:26.876Z,62.00
2022-08-17T07:40:58.145Z,61.90
2022-08-17T07:43:35.218Z,61.90
2022-08-17T07:46:30.561Z,62.10
2022-08-17T07:49:08.021Z,61.70
2022-08-17T07:51:44.051Z,61.50
2022-08-17T07:54:23.238Z,61.40
2022-08-17T07:57:08.866Z,61.40
2022-08-17T07:59:40.761Z,61.40
2022-08-17T08:02:22.722Z,61.30
2022-08-17T08:05:06.798Z,61.00
2022-08-17T08:08:14.546Z,60.80
2022-08-17T08:10:45.221Z,60.80
2022-08-17T08:13:20.478Z,60.80
2022-08-17T08:16:17.702Z,60.40
2022-08-17T08:18:55.755Z,60.40
2022-08-17T08:21:44.160Z,60.10
2022-08-17T08:24:45.879Z,60.20
2022-08-17T08:27:44.217Z,60.00
2022-08-17T08:30:24.112Z,59.80
2022-08-17T08:33:38.129Z,59.40
2022-08-17T08:37:02.052Z,59.60
2022-08-17T08:39:43.587Z,59.00
2022-08-17T08:42:32.267Z,59.10
2022-08-17T08:45:09.559Z,58.50
2022-08-17T08:47:55.294Z,58.20
2022-08-17T08:50:46.822Z,57.90
2022-08-17T08:53:21.284Z,57.80
2022-08-17T08:55:56.430Z,58.00
2022-08-17T08:58:52.227Z,57.70
2022-08-17T09:01:55.008Z,58.00
2022-08-17T09:05:14.219Z,58.00
2022-08-17T09:08:19.297Z,57.10
2022-08-17T09:11:09.391Z,56.70
2022-08-17T09:13:56.800Z,56.90
2022-08-17T09:16:36.091Z,56.70
2022-08-17T09:19:11.892Z,55.70
2022-08-17T09:21:56.932Z,55.10
2022-08-17T09:24:46.174Z,54.90
2022-08-17T09:27:28.062Z,55.10
2022-08-17T09:30:06.801Z,54.50
2022-08-17T09:32:49.909Z,53.50
2022-08-17T09:35:48.008Z,53.20
2022-08-17T09:38:35.116Z,52.80
2022-08-17T09:41:27.275Z,52.30
2022-08-17T09:44:23.125Z,51.90
2022-08-17T09:47:06.260Z,52.00
2022-08-17T09:49:45.665Z,52.00
2022-08-17T09:52:27.257Z,52.30
2022-08-17T09:54:57.701Z,51.80
2022-08-17T09:57:43.005Z,51.70
2022-08-17T10:00:29.051Z,51.70
2022-08-17T10:03:09.660Z,52.30
2022-08-17T10:05:57.183Z,50.90
2022-08-17T10:08:28.245Z,51.30
2022-08-17T10:11:14.903Z,51.10
2022-08-17T10:13:59.524Z,51.30
2022-08-17T10:16:55.907Z,50.60
2022-08-17T10:19:38.877Z,50.80
2022-08-17T10:22:45.688Z,50.30
2022-08-17T10:25:54.027Z,49.40
2022-08-17T10:28:30.547Z,48.80
2022-08-17T10:31:34.236Z,48.60
2022-08-17T10:34:21.242Z,48.70
2022-08-17T10:37:25.227Z,48.80
2022-08-17T10:40:27.768Z,48.30
2022-08-17T10:43:21.313Z,47.90
2022-08-17T10:46:30.079Z,47.90
2022-08-17T10:49:17.462Z,47.90
2022-08-17T10:51:48.042Z,46.50
2022-08-17T10:54:49.093Z,47.00
2022-08-17T10:57:33.919Z,47.90
2022-08-17T11:00:39.569Z,48.10
2022-08-17T11:03:21.015Z,47.70
2022-08-17T11:06:34.256Z,47.80
2022-08-17T11:09:20.008Z,47.00
2022-08-17T11:12:16.001Z,47.10
2022-08-17T11:14:58.207Z,46.80
2022-08-17T11:17:57.723Z,46.70
2022-08-17T11:21:25.175Z,46.60
2022-08-17T11:24:32.939Z,47.10
2022-08-17T11:27:23.678Z,46.90
2022-08-17T11:30:02.716Z,46.70
2022-08-17T11:32:47.755Z,45.80
2022-08-17T11:35:21.989Z,45.30
2022-08-17T11:38:13.544Z,45.30
2022-08-17T11:41:14.071Z,45.20
2022-08-17T11:44:03.795Z,45.20
2022-08-17T11:47:15.278Z,44.90
2022-08-17T11:50:19.073Z,44.00
2022-08-17T11:52:49.498Z,43.60
2022-08-17T11:55:39.658Z,43.50
2022-08-17T11:58:41.664Z,43.90
2022-08-17T12:01:24.301Z,44.50
2022-08-17T12:03:57.747Z,43.90
2022-08-17T12:06:34.870Z,43.40
2022-08-17T12:09:13.810Z,42.80
2022-08-17T12:12:12.799Z,42.50
2022-08-17T12:15:09.486Z,42.80
2022-08-17T12:17:41.550Z,42.50
2022-08-17T12:20:27.943Z,42.90
2022-08-17T12:23:05.271Z,43.00
2022-08-17T12:26:05.267Z,42.30
2022-08-17T12:28:38.943Z,43.40
2022-08-17T12:31:45.909Z,41.10
2022-08-17T12:34:27.092Z,42.60
2022-08-17T12:37:11.070Z,39.60
2022-08-17T12:39:39.357Z,39.30
2022-08-17T12:42:23.697Z,38.20
2022-08-17T12:44:50.981Z,37.70
2022-08-17T12:47:22.642Z,37.20
2022-08-17T12:49:54.021Z,36.50
2022-08-17T12:52:24.591Z,36.20
2022-08-17T12:55:06.185Z,34.90
2022-08-17T12:57:46.634Z,34.90
2022-08-17T13:00:32.331Z,33.30
2022-08-17T13:03:09.642Z,32.90
2022-08-17T13:05:48.609Z,32.30
2022-08-17T13:08:38.034Z,30.90
2022-08-17T13:11:19.713Z,29.90
2022-08-17T13:13:54.724Z,28.90
2022-08-17T13:16:29.696Z,28.80
2022-08-17T13:19:40.475Z,28.40
2022-08-17T13:22:15.049Z,29.20
2022-08-17T13:25:00.700Z,26.80
2022-08-17T13:27:29.528Z,27.10
2022-08-17T13:30:07.965Z,25.80
2022-08-17T13:32:43.985Z,25.90
2022-08-17T13:35:41.003Z,24.70
2022-08-17T13:38:14.762Z,24.80
2022-08-17T13:40:50.143Z,24.70
2022-08-17T13:43:44.758Z,25.00
2022-08-17T13:46:26.985Z,25.30
2022-08-17T13:49:05.832Z,23.30
2022-08-17T13:51:44.506Z,22.50
2022-08-17T13:54:31.426Z,21.70
2022-08-17T13:57:01.360Z,23.20
2022-08-17T13:59:54.829Z,22.40
2022-08-17T14:02:28.456Z,22.90
2022-08-17T14:04:59.484Z,22.90
2022-08-17T14:07:36.103Z,22.30
2022-08-17T14:10:06.355Z,22.10
2022-08-17T14:12:35.584Z,21.40
2022-08-17T14:15:03.013Z,21.40
2022-08-17T14:17:36.329Z,20.50
2022-08-17T14:20:12.321Z,20.80
2022-08-17T14:22:44.950Z,20.60
2022-08-17T14:25:26.108Z,20.30
2022-08-17T14:27:54.255Z,20.00
2022-08-17T14:30:29.947Z,19.80
2022-08-17T14:32:58.944Z,19.60
2022-08-17T14:35:28.114Z,19.70
2022-08-17T14:37:56.148Z,19.30
2022-08-17T14:40:26.949Z,19.40
2022-08-17T14:42:56.933Z,19.20
2022-08-17T14:45:29.895Z,19.00
2022-08-17T14:48:04.770Z,18.90
2022-08-17T14:50:35.400Z,19.30
2022-08-17T14:53:05.695Z,19.30
2022-08-17T14:55:36.740Z,19.50
2022-08-17T14:58:04.151Z,19.30
2022-08-17T15:00:32.171Z,19.40
2022-08-17T15:03:01.471Z,19.20
2022-08-17T15:05:34.450Z,19.60
2022-08-17T15:08:03.473Z,19.20
2022-08-17T15:10:31.493Z,19.10
2022-08-17T15:12:59.857Z,18.90
2022-08-17T15:15:28.047Z,18.80
2022-08-17T15:17:55.612Z,18.70
2022-08-17T15:20:28.736Z,18.80
2022-08-17T15:22:58.813Z,18.60
2022-08-17T15:25:34.870Z,18.60
2022-08-17T15:28:02.453Z,18.60
2022-08-17T15:30:29.883Z,18.70
2022-08-17T15:32:58.853Z,18.50
2022-08-17T15:35:30.449Z,18.60
2022-08-17T15:38:10.713Z,18.30
2022-08-17T15:40:47.457Z,18.50
2022-08-17T15:43:27.679Z,18.30
2022-08-17T15:46:10.461Z,18.20
2022-08-17T15:48:41.950Z,18.40
2022-08-17T15:51:24.517Z,18.20
2022-08-17T15:53:54.785Z,18.10
2022-08-17T15:56:22.719Z,18.20
2022-08-17T15:58:50.610Z,18.40
2022-08-17T16:01:46.562Z,18.40
2022-08-17T16:04:26.845Z,18.30
2022-08-17T16:06:58.089Z,18.00
2022-08-17T16:09:25.075Z,18.30
2022-08-17T16:11:55.256Z,18.40
2022-08-17T16:14:24.487Z,18.70
2022-08-17T16:16:59.125Z,18.40
2022-08-17T16:19:26.215Z,18.70
2022-08-17T16:21:53.441Z,19.00
2022-08-17T16:24:20.455Z,19.20
2022-08-17T16:26:47.460Z,19.50
2022-08-17T16:29:15.934Z,20.10
2022-08-17T16:31:43.347Z,20.30
2022-08-17T16:34:18.046Z,20.10
2022-08-17T16:36:55.598Z,20.10
2022-08-17T16:39:29.350Z,20.50
2022-08-17T16:41:57.420Z,20.70
2022-08-17T16:44:25.961Z,21.00
2022-08-17T16:46:53.747Z,21.70
2022-08-17T16:49:35.992Z,22.20
2022-08-17T16:52:10.810Z,22.10
2022-08-17T16:54:44.360Z,22.50
2022-08-17T16:57:17.567Z,22.00
2022-08-17T16:59:50.197Z,22.30
2022-08-17T17:02:47.172Z,22.90
2022-08-17T17:05:48.481Z,24.00
2022-08-17T17:08:49.320Z,23.40
2022-08-17T17:11:28.364Z,23.70
2022-08-17T17:13:59.538Z,24.60
2022-08-17T17:16:37.648Z,25.80
2022-08-17T17:19:36.252Z,26.60
2022-08-17T17:22:30.988Z,27.90
2022-08-17T17:25:16.074Z,28.00
2022-08-17T17:28:07.592Z,27.50
2022-08-17T17:31:08.765Z,28.70
2022-08-17T17:33:47.805Z,28.60
2022-08-17T17:36:43.445Z,28.90
2022-08-17T17:39:41.375Z,28.50
2022-08-17T17:42:22.869Z,29.50
2022-08-17T17:45:09.058Z,30.10
2022-08-17T17:47:37.536Z,30.20
2022-08-17T17:50:06.977Z,31.20
2022-08-17T17:52:55.172Z,32.40
2022-08-17T17:55:51.748Z,31.50
2022-08-17T17:58:55.781Z,32.00
2022-08-17T18:01:30.803Z,33.20
2022-08-17T18:04:28.864Z,34.70
2022-08-17T18:07:28.406Z,33.70
2022-08-17T18:10:30.544Z,33.60
2022-08-17T18:13:12.283Z,33.30
2022-08-17T18:15:51.117Z,35.20
2022-08-17T18:18:18.079Z,35.30
2022-08-17T18:20:55.798Z,35.40
2022-08-17T18:23:28.221Z,36.00
2022-08-17T18:25:56.867Z,36.10
2022-08-17T18:28:38.920Z,36.00
2022-08-17T18:31:18.597Z,36.90
2022-08-17T18:33:50.576Z,37.10
2022-08-17T18:36:36.608Z,36.90
2022-08-17T18:39:21.454Z,36.70
2022-08-17T18:41:52.573Z,37.20
2022-08-17T18:44:32.761Z,38.10
2022-08-17T18:47:18.590Z,38.60
2022-08-17T18:49:53.583Z,38.10
2022-08-17T18:52:31.447Z,38.90
2022-08-17T18:55:15.816Z,39.40
2022-08-17T18:57:48.963Z,39.80
2022-08-17T19:00:40.205Z,39.90
2022-08-17T19:03:25.121Z,39.30
2022-08-17T19:06:21.492Z,39.30
2022-08-17T19:08:48.870Z,38.90
2022-08-17T19:11:34.348Z,40.00
2022-08-17T19:14:10.624Z,40.60
2022-08-17T19:16:49.350Z,40.40
2022-08-17T19:19:24.225Z,40.50
2022-08-17T19:21:58.995Z,40.90
2022-08-17T19:24:32.543Z,41.70
2022-08-17T19:27:17.965Z,41.80
2022-08-17T19:30:08.580Z,41.60
2022-08-17T19:32:36.525Z,41.50
2022-08-17T19:35:07.411Z,42.00
2022-08-17T19:37:53.754Z,42.40
2022-08-17T19:40:55.107Z,42.90
2022-08-17T19:43:22.206Z,41.90
2022-08-17T19:46:06.096Z,42.80
2022-08-17T19:49:11.885Z,43.10
2022-08-17T19:51:44.961Z,45.00
2022-08-17T19:54:24.907Z,43.90
2022-08-17T19:57:12.516Z,43.60
2022-08-17T19:59:57.760Z,43.80
2022-08-17T20:02:33.913Z,43.90
2022-08-17T20:05:26.936Z,44.60
2022-08-17T20:08:13.543Z,44.50
2022-08-17T20:10:59.657Z,45.80
2022-08-17T20:13:49.140Z,45.70
2022-08-17T20:16:19.353Z,44.40
2022-08-17T20:19:06.867Z,44.50
2022-08-17T20:21:44.233Z,44.30
2022-08-17T20:24:28.965Z,45.20
2022-08-17T20:27:05.182Z,45.20
2022-08-17T20:29:55.288Z,45.50
2022-08-17T20:32:30.075Z,44.50
2022-08-17T20:35:27.609Z,45.70
2022-08-17T20:38:36.187Z,45.60
2022-08-17T20:41:03.961Z,45.20
2022-08-17T20:43:33.927Z,45.80
2022-08-17T20:46:46.409Z,46.10
2022-08-17T20:49:44.935Z,45.10
2022-08-17T20:52:35.056Z,46.10
2022-08-17T20:55:04.441Z,46.50
2022-08-17T20:57:31.602Z,46.40
2022-08-17T21:00:15.366Z,46.50
2022-08-17T21:02:46.647Z,46.60
2022-08-17T21:05:38.961Z,46.90
2022-08-17T21:08:18.780Z,46.50
2022-08-17T21:10:47.196Z,47.20
2022-08-17T21:13:15.803Z,47.20
2022-08-17T21:15:53.102Z,48.00
2022-08-17T21:18:52.861Z,47.90
2022-08-17T21:21:43.089Z,47.90
2022-08-17T21:25:03.274Z,48.20
2022-08-17T21:27:39.565Z,48.00
2022-08-17T21:30:09.956Z,48.20
2022-08-17T21:32:41.903Z,47.90
2022-08-17T21:35:28.431Z,48.30
2022-08-17T21:38:03.681Z,48.60
2022-08-17T21:40:33.784Z,49.00
2022-08-17T21:43:24.217Z,48.70
2022-08-17T21:46:12.537Z,49.00
2022-08-17T21:48:48.291Z,49.60
2022-08-17T21:51:22.951Z,49.40
2022-08-17T21:53:57.316Z,49.10
2022-08-17T21:56:39.482Z,49.40
2022-08-17T21:59:38.406Z,49.30
2022-08-17T22:02:09.992Z,49.60
2022-08-17T22:04:41.493Z,49.90
2022-08-17T22:07:14.149Z,49.80
2022-08-17T22:09:50.003Z,50.40
2022-08-17T22:12:24.217Z,50.00
2022-08-17T22:15:04.332Z,50.10
2022-08-17T22:17:41.280Z,50.30
2022-08-17T22:20:15.888Z,50.20
2022-08-17T22:23:04.377Z,50.50
2022-08-17T22:25:36.115Z,50.60
2022-08-17T22:28:11.024Z,50.30
2022-08-17T22:30:46.943Z,50.70
2022-08-17T22:33:32.792Z,50.60
2022-08-17T22:36:28.946Z,50.50
2022-08-17T22:39:10.207Z,51.10
2022-08-17T22:41:51.336Z,51.20
2022-08-17T22:44:31.915Z,51.10
2022-08-17T22:47:19.452Z,51.80
2022-08-17T22:49:59.547Z,51.50
2022-08-17T22:52:58.745Z,51.70
2022-08-17T22:55:45.207Z,51.50
2022-08-17T22:58:38.968Z,51.80
2022-08-17T23:01:32.457Z,52.00
2022-08-17T23:04:04.724Z,52.00
2022-08-17T23:06:34.192Z,52.50
2022-08-17T23:09:04.645Z,52.70
2022-08-17T23:11:50.325Z,52.50
2022-08-17T23:14:20.416Z,52.20
2022-08-17T23:16:50.520Z,52.60
2022-08-17T23:19:21.035Z,52.80
2022-08-17T23:21:50.418Z,53.20
2022-08-17T23:24:28.595Z,52.80
2022-08-17T23:26:58.252Z,53.40
2022-08-17T23:29:29.391Z,53.20
2022-08-17T23:32:00.010Z,53.20
2022-08-17T23:34:28.399Z,53.10
2022-08-17T23:36:56.823Z,53.50
2022-08-17T23:39:28.055Z,53.60
2022-08-17T23:42:00.844Z,53.40
2022-08-17T23:44:28.975Z,53.70
2022-08-17T23:46:56.756Z,53.70
2022-08-17T23:49:25.025Z,53.70
2022-08-17T23:51:54.832Z,53.60
2022-08-17T23:54:43.977Z,53.80
2022-08-17T23:57:18.016Z,54.30
2022-08-17T23:59:46.070Z,54.10
